Time,TemperatureF,DewpointF,PressureIn,WindDirection,WindDirectionDegrees,WindSpeedMPH,WindSpeedGustMPH,Humidity,HourlyPrecipIn,Conditions,Clouds,dailyrainin,SolarRadiationWatts/m^2,SoftwareType,DateUTC
2013-09-23 00:02:00,56.0,40.0,-100.00,NW,307,11.0,21.0,54,0.00,,,0.00,0.000000,,2013-09-23 06:02:00,
2013-09-23 00:13:00,56.0,40.0,-100.00,NW,307,11.0,21.0,54,0.00,,,0.00,0.000000,,2013-09-23 06:13:00,
2013-09-23 00:52:00,53.0,39.0,-100.00,NNW,330,8.0,19.0,58,0.00,,,0.00,0.000000,,2013-09-23 06:52:00,
2013-09-23 01:01:00,53.0,39.0,-100.00,NNW,330,8.0,19.0,58,0.00,,,0.00,0.000000,,2013-09-23 07:01:00,
2013-09-23 01:11:00,53.0,39.0,-100.00,NNW,330,8.0,19.0,58,0.00,,,0.00,0.000000,,2013-09-23 07:11:00,
2013-09-23 01:21:00,53.0,39.0,-100.00,NNW,330,8.0,19.0,58,0.00,,,0.00,0.000000,,2013-09-23 07:21:00,
2013-09-23 01:22:00,53.0,39.0,-100.00,WNW,292,5.0,11.0,60,0.00,,,0.00,0.000000,,2013-09-23 07:22:00,
2013-09-23 01:52:00,53.0,39.0,-100.00,WNW,292,5.0,11.0,60,0.00,,,0.00,0.000000,,2013-09-23 07:52:00,
2013-09-23 02:02:00,53.0,39.0,-100.00,WNW,292,5.0,11.0,60,0.00,,,0.00,0.000000,,2013-09-23 08:02:00,
2013-09-23 02:11:00,53.0,39.0,-100.00,WNW,292,5.0,11.0,60,0.00,,,0.00,0.000000,,2013-09-23 08:11:00,
2013-09-23 02:52:00,53.0,38.0,-100.00,WNW,296,16.0,25.0,57,0.00,,,0.00,0.000000,,2013-09-23 08:52:00,
2013-09-23 03:02:00,53.0,38.0,-100.00,WNW,296,16.0,25.0,57,0.00,,,0.00,0.000000,,2013-09-23 09:02:00,
2013-09-23 03:11:00,53.0,38.0,-100.00,WNW,296,16.0,25.0,57,0.00,,,0.00,0.000000,,2013-09-23 09:11:00,
2013-09-23 03:21:00,53.0,38.0,-100.00,WNW,296,16.0,25.0,57,0.00,,,0.00,0.000000,,2013-09-23 09:21:00,
2013-09-23 03:22:00,52.0,37.0,-100.00,WNW,287,14.0,25.0,57,0.00,,,0.00,0.000000,,2013-09-23 09:22:00,
2013-09-23 03:53:00,52.0,37.0,-100.00,WNW,287,14.0,25.0,57,0.00,,,0.00,0.000000,,2013-09-23 09:53:00,
2013-09-23 04:03:00,52.0,37.0,-100.00,WNW,287,14.0,25.0,57,0.00,,,0.00,0.000000,,2013-09-23 10:03:00,
2013-09-23 04:12:00,52.0,37.0,-100.00,WNW,287,14.0,25.0,57,0.00,,,0.00,0.000000,,2013-09-23 10:12:00,
2013-09-23 04:52:00,52.0,34.0,-100.00,WNW,282,13.0,19.0,50,0.00,,,0.00,0.000000,,2013-09-23 10:52:00,
2013-09-23 05:02:00,52.0,34.0,-100.00,WNW,282,13.0,19.0,50,0.00,,,0.00,0.000000,,2013-09-23 11:02:00,
2013-09-23 05:12:00,52.0,34.0,-100.00,WNW,282,13.0,19.0,50,0.00,,,0.00,0.000000,,2013-09-23 11:12:00,
2013-09-23 05:21:00,52.0,34.0,-100.00,WNW,282,13.0,19.0,50,0.00,,,0.00,0.000000,,2013-09-23 11:21:00,
2013-09-23 05:22:00,48.0,33.0,-100.00,NW,304,6.0,19.0,56,0.00,,,0.00,0.000000,,2013-09-23 11:22:00,
2013-09-23 05:52:00,48.0,33.0,-100.00,NW,304,6.0,19.0,56,0.00,,,0.00,0.000000,,2013-09-23 11:52:00,
2013-09-23 06:01:00,48.0,33.0,-100.00,NW,304,6.0,19.0,56,0.00,,,0.00,0.000000,,2013-09-23 12:01:00,
2013-09-23 06:11:00,48.0,33.0,-100.00,NW,304,6.0,19.0,56,0.00,,,0.00,0.000000,,2013-09-23 12:11:00,
2013-09-23 06:52:00,49.0,34.0,-100.00,WNW,285,8.0,13.0,55,0.00,,,0.00,0.000000,,2013-09-23 12:52:00,
2013-09-23 07:01:00,49.0,34.0,-100.00,WNW,285,8.0,13.0,55,0.00,,,0.00,0.000000,,2013-09-23 13:01:00,
2013-09-23 07:11:00,49.0,34.0,-100.00,WNW,285,8.0,13.0,55,0.00,,,0.00,0.000000,,2013-09-23 13:11:00,
2013-09-23 07:21:00,49.0,34.0,-100.00,WNW,285,8.0,13.0,55,0.00,,,0.00,0.000000,,2013-09-23 13:21:00,
2013-09-23 09:22:00,61.0,34.0,-100.00,WNW,283,11.0,17.0,36,0.00,,,0.00,106.000000,,2013-09-23 15:22:00,
2013-09-23 09:54:00,61.0,34.0,-100.00,WNW,283,11.0,17.0,36,0.00,,,0.00,106.000000,,2013-09-23 15:54:00,
2013-09-23 10:03:00,61.0,34.0,-100.00,WNW,283,11.0,17.0,36,0.00,,,0.00,106.000000,,2013-09-23 16:03:00,
2013-09-23 10:22:00,64.0,33.0,-100.00,WNW,288,9.0,19.0,31,0.00,,,0.00,266.000000,,2013-09-23 16:22:00,
2013-09-23 10:53:00,64.0,33.0,-100.00,WNW,288,9.0,19.0,31,0.00,,,0.00,266.000000,,2013-09-23 16:53:00,
2013-09-23 11:03:00,64.0,33.0,-100.00,WNW,288,9.0,19.0,31,0.00,,,0.00,266.000000,,2013-09-23 17:03:00,
2013-09-23 11:12:00,64.0,33.0,-100.00,WNW,288,9.0,19.0,31,0.00,,,0.00,266.000000,,2013-09-23 17:12:00,
2013-09-23 11:52:00,64.0,30.0,-100.00,West,264,10.0,30.0,28,0.00,,,0.00,760.000000,,2013-09-23 17:52:00,
2013-09-23 12:02:00,64.0,30.0,-100.00,West,264,10.0,30.0,28,0.00,,,0.00,760.000000,,2013-09-23 18:02:00,
2013-09-23 12:12:00,64.0,30.0,-100.00,West,264,10.0,30.0,28,0.00,,,0.00,760.000000,,2013-09-23 18:12:00,
2013-09-23 12:21:00,64.0,30.0,-100.00,West,264,10.0,30.0,28,0.00,,,0.00,760.000000,,2013-09-23 18:21:00,
2013-09-23 12:22:00,64.0,33.0,-100.00,North,353,5.0,21.0,31,0.00,,,0.00,696.000000,,2013-09-23 18:22:00,
2013-09-23 12:52:00,64.0,33.0,-100.00,North,353,5.0,21.0,31,0.00,,,0.00,696.000000,,2013-09-23 18:52:00,
2013-09-23 13:02:00,64.0,33.0,-100.00,North,353,5.0,21.0,31,0.00,,,0.00,696.000000,,2013-09-23 19:02:00,
2013-09-23 13:12:00,64.0,33.0,-100.00,North,353,5.0,21.0,31,0.00,,,0.00,696.000000,,2013-09-23 19:12:00,
2013-09-23 13:53:00,67.0,30.0,-100.00,WSW,246,12.0,21.0,25,0.00,,,0.00,1102.000000,,2013-09-23 19:53:00,
2013-09-23 14:02:00,67.0,30.0,-100.00,WSW,246,12.0,21.0,25,0.00,,,0.00,1102.000000,,2013-09-23 20:02:00,
2013-09-23 14:12:00,67.0,30.0,-100.00,WSW,246,12.0,21.0,25,0.00,,,0.00,1102.000000,,2013-09-23 20:12:00,
2013-09-23 14:21:00,67.0,30.0,-100.00,WSW,246,12.0,21.0,25,0.00,,,0.00,1102.000000,,2013-09-23 20:21:00,
2013-09-23 14:22:00,66.0,29.0,-100.00,WNW,294,12.0,25.0,25,0.00,,,0.00,898.000000,,2013-09-23 20:22:00,
2013-09-23 14:52:00,66.0,29.0,-100.00,WNW,294,12.0,25.0,25,0.00,,,0.00,898.000000,,2013-09-23 20:52:00,
2013-09-23 15:02:00,66.0,29.0,-100.00,WNW,294,12.0,25.0,25,0.00,,,0.00,898.000000,,2013-09-23 21:02:00,
2013-09-23 15:11:00,66.0,29.0,-100.00,WNW,294,12.0,25.0,25,0.00,,,0.00,898.000000,,2013-09-23 21:11:00,
2013-09-23 15:22:00,67.0,29.0,-100.00,WSW,251,16.0,29.0,24,0.00,,,0.00,764.000000,,2013-09-23 21:22:00,
2013-09-23 15:54:00,67.0,29.0,-100.00,WSW,251,16.0,29.0,24,0.00,,,0.00,764.000000,,2013-09-23 21:54:00,
2013-09-23 16:03:00,67.0,29.0,-100.00,WSW,251,16.0,29.0,24,0.00,,,0.00,764.000000,,2013-09-23 22:03:00,
2013-09-23 16:13:00,67.0,29.0,-100.00,WSW,251,16.0,29.0,24,0.00,,,0.00,764.000000,,2013-09-23 22:13:00,
2013-09-23 16:22:00,67.0,29.0,-100.00,WSW,250,16.0,27.0,24,0.00,,,0.00,716.000000,,2013-09-23 22:22:00,
2013-09-23 16:54:00,67.0,29.0,-100.00,WSW,250,16.0,27.0,24,0.00,,,0.00,716.000000,,2013-09-23 22:54:00,
2013-09-23 17:02:00,67.0,29.0,-100.00,WSW,250,16.0,27.0,24,0.00,,,0.00,716.000000,,2013-09-23 23:02:00,
2013-09-23 17:12:00,67.0,29.0,-100.00,WSW,250,16.0,27.0,24,0.00,,,0.00,716.000000,,2013-09-23 23:12:00,
2013-09-23 17:22:00,66.0,27.0,-100.00,West,264,16.0,25.0,23,0.00,,,0.00,480.000000,,2013-09-23 23:22:00,
2013-09-23 17:54:00,66.0,27.0,-100.00,West,264,16.0,25.0,23,0.00,,,0.00,480.000000,,2013-09-23 23:54:00,
2013-09-23 18:01:00,66.0,27.0,-100.00,West,264,16.0,25.0,23,0.00,,,0.00,480.000000,,2013-09-24 00:01:00,
2013-09-23 18:11:00,66.0,27.0,-100.00,West,264,16.0,25.0,23,0.00,,,0.00,480.000000,,2013-09-24 00:11:00,
2013-09-23 18:52:00,67.0,28.0,-100.00,WSW,239,8.0,24.0,23,0.00,,,0.00,264.000000,,2013-09-24 00:52:00,
2013-09-23 19:01:00,67.0,28.0,-100.00,WSW,239,8.0,24.0,23,0.00,,,0.00,264.000000,,2013-09-24 01:01:00,
2013-09-23 19:12:00,67.0,28.0,-100.00,WSW,239,8.0,24.0,23,0.00,,,0.00,264.000000,,2013-09-24 01:12:00,
2013-09-23 19:21:00,67.0,28.0,-100.00,WSW,239,8.0,24.0,23,0.00,,,0.00,264.000000,,2013-09-24 01:21:00,
2013-09-23 19:22:00,58.0,24.0,-100.00,SSE,158,2.0,20.0,27,0.00,,,0.00,39.000000,,2013-09-24 01:22:00,
2013-09-23 19:52:00,58.0,24.0,-100.00,SSE,158,2.0,20.0,27,0.00,,,0.00,39.000000,,2013-09-24 01:52:00,
2013-09-23 20:02:00,58.0,24.0,-100.00,SSE,158,2.0,20.0,27,0.00,,,0.00,39.000000,,2013-09-24 02:02:00,
2013-09-23 20:12:00,58.0,24.0,-100.00,SSE,158,2.0,20.0,27,0.00,,,0.00,39.000000,,2013-09-24 02:12:00,
2013-09-23 20:52:00,58.0,27.0,-100.00,West,277,2.0,15.0,30,0.00,,,0.00,0.000000,,2013-09-24 02:52:00,
2013-09-23 21:02:00,58.0,27.0,-100.00,West,277,2.0,15.0,30,0.00,,,0.00,0.000000,,2013-09-24 03:02:00,
2013-09-23 21:12:00,58.0,27.0,-100.00,West,277,2.0,15.0,30,0.00,,,0.00,0.000000,,2013-09-24 03:12:00,
2013-09-23 21:21:00,58.0,27.0,-100.00,West,277,2.0,15.0,30,0.00,,,0.00,0.000000,,2013-09-24 03:21:00,
2013-09-23 21:22:00,58.0,25.0,-100.00,SSE,156,2.0,17.0,28,0.00,,,0.00,0.000000,,2013-09-24 03:22:00,
2013-09-23 21:54:00,58.0,25.0,-100.00,SSE,156,2.0,17.0,28,0.00,,,0.00,0.000000,,2013-09-24 03:54:00,
2013-09-23 22:04:00,58.0,25.0,-100.00,SSE,156,2.0,17.0,28,0.00,,,0.00,0.000000,,2013-09-24 04:04:00,
2013-09-23 22:14:00,58.0,25.0,-100.00,SSE,156,2.0,17.0,28,0.00,,,0.00,0.000000,,2013-09-24 04:14:00,
2013-09-23 22:22:00,60.0,27.0,-100.00,WSW,239,8.0,19.0,28,0.00,,,0.00,0.000000,,2013-09-24 04:22:00,
2013-09-23 22:54:00,60.0,27.0,-100.00,WSW,239,8.0,19.0,28,0.00,,,0.00,0.000000,,2013-09-24 04:54:00,
2013-09-23 23:03:00,60.0,27.0,-100.00,WSW,239,8.0,19.0,28,0.00,,,0.00,0.000000,,2013-09-24 05:03:00,
2013-09-23 23:13:00,60.0,27.0,-100.00,WSW,239,8.0,19.0,28,0.00,,,0.00,0.000000,,2013-09-24 05:13:00,
2013-09-23 23:53:00,53.0,29.0,-100.00,NNW,339,3.0,17.0,39,0.00,,,0.00,0.000000,,2013-09-24 05:53:00,